KMIB/MIB METAR and TAF weather

Enter ICAO airport designator
Station Type Date Time Source
KMIB METAR 2019/04/24 15:56 UTC NOAA

KMIB 241556Z AUTO 33016G22KT 10SM CLR 17/03 A2977 RMK AO2 SLP089 T01670030 $


Station Type Date Time Source
KMIB Decoded METAR 2019/04/24 15:56 UTC NOAA

Minot Air Force Base, ND, United States (KMIB) 48-25N 101-21W
Apr 24, 2019 - 11:56 AM EDT / 2019.04.24 1556 UTC
Wind: from the NNW (330 degrees) at 18 MPH (16 KT) gusting to 25 MPH (22 KT):0
Visibility: 10 mile(s):0
Sky conditions: clear
Temperature: 62.1 F (16.7 C)
Dew Point: 37.4 F (3.0 C)
Relative Humidity: 39%
Pressure (altimeter): 29.77 in. Hg (1008 hPa)
ob: KMIB 241556Z AUTO 33016G22KT 10SM CLR 17/03 A2977 RMK AO2 SLP089 T01670030
cycle: 16

Station Type Date Time Source
KMIB TAF 2019/04/24 15:55 UTC NOAA

TAF
AMD KMIB 241545Z 2415/2515 32010G15KT 9000 -SHRA SCT090 BKN110 QNH2964INS
BECMG 2415/2416 33012G18KT 9999 NSW FEW060 QNH2975INS
BECMG 2417/2418 32015G25KT 9999 SKC QNH2977INS
BECMG 2501/2502 32009KT 9999 SCT090 QNH2981INS TX17/2421Z TN05/2508Z

Example: see airport list